Time;durP1;ratioP1;P1;durP2;ratioP2;P2;SDS_P1;SDS_P2;PMS_P1;PMS_P2;Temp;Humidity;BMP_temperature;BMP_pressure;BME280_temperature;BME280_humidity;BME280_pressure;Samples;Min_cycle;Max_cycle;Signal;HPM_P1;HPM_P2
2023/07/15 00:01:23;;;;;;;5.63;1.92;;;;;;;23.94;39.15;98934.31;5044456;28;20037;-73
2023/07/15 00:03:49;;;;;;;3.45;1.38;;;;;;;23.89;39.42;98939.03;5044348;28;20041;-72
2023/07/15 00:06:16;;;;;;;3.88;1.67;;;;;;;23.90;39.23;98929.50;5044660;28;20045;-72
2023/07/15 00:08:42;;;;;;;3.30;1.80;;;;;;;23.86;39.42;98934.22;5044375;28;21278;-71
2023/07/15 00:11:29;;;;;;;3.80;2.05;;;;;;;23.89;39.24;98936.25;5044140;28;20028;-70
2023/07/15 00:13:56;;;;;;;4.78;2.33;;;;;;;23.88;39.39;98919.94;5043897;28;20681;-71
2023/07/15 00:16:22;;;;;;;3.92;1.77;;;;;;;23.89;39.36;98922.34;5044170;28;20128;-71
2023/07/15 00:18:47;;;;;;;4.38;2.10;;;;;;;23.90;39.24;98932.28;5043917;28;20040;-71
2023/07/15 00:21:20;;;;;;;4.15;2.20;;;;;;;23.90;39.19;98918.38;5043822;28;20090;-72
2023/07/15 00:23:46;;;;;;;5.80;2.03;;;;;;;23.94;39.34;98928.75;5044583;28;20025;-72
2023/07/15 00:26:11;;;;;;;5.75;2.78;;;;;;;23.91;39.37;98930.31;5043966;28;20106;-70
2023/07/15 00:28:37;;;;;;;4.40;3.00;;;;;;;23.89;39.51;98927.91;5044041;28;20555;-70
2023/07/15 00:31:13;;;;;;;4.50;1.97;;;;;;;23.90;39.14;98917.56;5044110;28;20270;-71
2023/07/15 00:33:40;;;;;;;7.07;2.75;;;;;;;23.90;39.57;98918.38;5043877;28;20090;-71
2023/07/15 00:36:05;;;;;;;6.30;2.10;;;;;;;23.88;39.65;98926.28;5043633;28;20125;-71
2023/07/15 00:38:30;;;;;;;3.13;1.35;;;;;;;23.84;39.80;98921.88;5044006;28;20478;-71
2023/07/15 00:40:56;;;;;;;4.10;1.93;;;;;;;23.74;39.89;98918.53;5043335;28;20037;-71
2023/07/15 00:43:56;;;;;;;5.00;1.75;;;;;;;23.76;39.79;98907.03;5043651;28;20038;-71
2023/07/15 00:46:31;;;;;;;7.68;1.90;;;;;;;23.79;39.72;98914.63;5043764;28;20037;-71
2023/07/15 00:49:11;;;;;;;3.78;1.30;;;;;;;23.73;39.91;98921.69;5043209;28;20037;-71
2023/07/15 00:51:39;;;;;;;4.78;1.60;;;;;;;23.67;40.38;98916.47;5043997;28;20553;-71
2023/07/15 00:54:06;;;;;;;3.10;1.80;;;;;;;23.69;39.98;98912.50;5043157;28;20043;-71
2023/07/15 00:56:34;;;;;;;1.85;1.33;;;;;;;23.72;40.34;98911.75;5043266;28;20065;-70
2023/07/15 00:59:00;;;;;;;4.38;1.45;;;;;;;23.71;40.41;98915.72;5043164;28;20025;-71
2023/07/15 01:01:26;;;;;;;3.00;1.40;;;;;;;23.66;39.80;98919.59;5043570;28;20033;-71
2023/07/15 01:03:51;;;;;;;3.17;1.42;;;;;;;23.72;40.23;98914.53;5043355;28;20378;-70
2023/07/15 01:06:16;;;;;;;4.40;2.10;;;;;;;23.68;39.97;98911.69;5042677;28;20043;-71
2023/07/15 01:08:42;;;;;;;5.63;1.97;;;;;;;23.72;40.09;98906.19;5042781;28;20357;-71
2023/07/15 01:11:09;;;;;;;4.50;1.73;;;;;;;23.73;39.74;98916.94;5043274;28;20040;-71
2023/07/15 01:13:34;;;;;;;19.65;2.05;;;;;;;23.67;39.85;98905.34;5043120;28;20048;-71
2023/07/15 01:16:00;;;;;;;3.17;1.60;;;;;;;23.72;40.02;98908.97;5043110;28;20640;-71
2023/07/15 01:18:25;;;;;;;3.58;1.40;;;;;;;23.69;40.24;98902.19;5042729;28;20044;-71
2023/07/15 01:20:50;;;;;;;4.43;1.47;;;;;;;23.71;40.08;98904.59;5043337;28;20033;-71
2023/07/15 01:23:16;;;;;;;5.13;1.85;;;;;;;23.62;39.95;98914.00;5042625;28;20259;-70
2023/07/15 01:25:41;;;;;;;3.45;1.73;;;;;;;23.70;40.14;98916.88;5042861;28;20144;-71
2023/07/15 01:28:07;;;;;;;4.90;2.13;;;;;;;23.63;40.18;98904.50;5042969;28;20064;-71
2023/07/15 01:30:32;;;;;;;2.97;1.93;;;;;;;23.59;40.12;98900.84;5042716;28;20120;-71
2023/07/15 01:32:57;;;;;;;3.78;1.40;;;;;;;23.65;40.33;98907.69;5042411;28;20078;-71
2023/07/15 01:35:22;;;;;;;4.10;1.70;;;;;;;23.71;39.99;98908.19;5042568;28;20090;-71
2023/07/15 01:37:48;;;;;;;13.17;4.40;;;;;;;23.72;40.41;98900.59;5042194;28;20037;-70
2023/07/15 01:40:13;;;;;;;3.75;1.60;;;;;;;23.57;40.61;98906.00;5042079;28;20494;-72
2023/07/15 01:42:40;;;;;;;2.53;1.80;;;;;;;23.66;40.48;98898.16;5042968;28;20037;-72
2023/07/15 01:45:08;;;;;;;4.75;2.20;;;;;;;23.59;40.63;98897.25;5042788;28;20536;-71
2023/07/15 01:47:33;;;;;;;5.05;1.30;;;;;;;23.56;40.68;98893.25;5042686;28;20036;-70
2023/07/15 01:49:59;;;;;;;7.00;2.10;;;;;;;23.56;40.62;98893.25;5044573;28;20036;-78
2023/07/15 01:52:25;;;;;;;3.45;1.92;;;;;;;23.54;40.73;98890.03;5045269;28;20372;-78
2023/07/15 01:54:50;;;;;;;2.25;1.42;;;;;;;23.51;40.89;98894.34;5044896;28;20457;-78
2023/07/15 01:57:16;;;;;;;5.23;1.57;;;;;;;23.47;40.72;98884.38;5045198;28;20029;-78
2023/07/15 01:59:41;;;;;;;3.10;1.48;;;;;;;23.50;40.58;98889.19;5044820;28;20266;-78
2023/07/15 02:02:07;;;;;;;3.97;1.85;;;;;;;23.46;40.72;98882.75;5045025;28;20651;-78
2023/07/15 02:04:32;;;;;;;4.75;1.52;;;;;;;23.35;40.88;98883.38;5044888;28;20043;-78
2023/07/15 02:06:57;;;;;;;3.53;1.93;;;;;;;23.36;41.29;98875.84;5045173;28;20037;-78
2023/07/15 02:09:23;;;;;;;2.83;1.53;;;;;;;23.32;41.27;98879.38;5044658;28;20262;-78
2023/07/15 02:11:49;;;;;;;3.38;1.35;;;;;;;23.30;41.24;98880.91;5044784;28;20048;-78
2023/07/15 02:14:14;;;;;;;2.85;1.60;;;;;;;23.24;41.26;98871.28;5045210;28;20099;-77
2023/07/15 02:16:39;;;;;;;4.43;1.90;;;;;;;23.27;41.42;98874.13;5044878;28;20045;-78
2023/07/15 02:19:06;;;;;;;3.27;1.30;;;;;;;23.31;41.16;98874.16;5044985;28;20258;-79
2023/07/15 02:21:31;;;;;;;4.13;1.52;;;;;;;23.29;41.53;98869.00;5044473;28;20312;-78
2023/07/15 02:23:56;;;;;;;2.80;1.60;;;;;;;23.29;41.13;98873.75;5044659;28;20490;-78
2023/07/15 02:26:22;;;;;;;3.80;1.57;;;;;;;23.26;41.39;98874.50;5045319;28;20037;-77
2023/07/15 02:28:47;;;;;;;2.87;1.43;;;;;;;23.25;41.53;98870.91;5043970;28;20775;-77
2023/07/15 02:31:12;;;;;;;5.85;1.65;;;;;;;23.20;41.03;98866.50;5043505;28;20266;-78
2023/07/15 02:33:40;;;;;;;4.77;1.37;;;;;;;23.29;40.91;98865.44;5044764;28;20028;-78
2023/07/15 02:36:06;;;;;;;2.38;1.40;;;;;;;23.31;41.25;98871.38;5044129;28;20268;-78
2023/07/15 02:38:31;;;;;;;3.45;1.20;;;;;;;23.31;41.46;98858.28;5044540;28;20037;-77
2023/07/15 02:40:56;;;;;;;2.42;1.27;;;;;;;23.33;41.34;98869.03;5045138;28;20061;-77
2023/07/15 02:43:22;;;;;;;3.40;1.80;;;;;;;23.28;41.08;98872.16;5044861;28;20067;-78
2023/07/15 02:45:50;;;;;;;3.78;1.55;;;;;;;23.28;41.41;98858.25;5044257;28;20614;-77
2023/07/15 02:48:15;;;;;;;8.40;1.45;;;;;;;23.18;40.96;98859.69;5044720;28;20032;-78
2023/07/15 02:50:40;;;;;;;2.43;1.47;;;;;;;23.28;41.50;98861.84;5044193;28;20083;-78
2023/07/15 02:53:05;;;;;;;2.20;1.47;;;;;;;23.18;41.31;98854.13;5044101;28;20798;-78
2023/07/15 02:55:31;;;;;;;5.20;2.00;;;;;;;23.13;41.31;98858.00;5044732;28;20025;-78
2023/07/15 02:57:56;;;;;;;3.13;1.52;;;;;;;23.08;41.55;98859.16;5044828;28;20838;-78
2023/07/15 03:00:22;;;;;;;3.27;1.13;;;;;;;23.16;41.72;98860.06;5043944;28;20401;-78
2023/07/15 03:02:47;;;;;;;3.25;1.55;;;;;;;23.18;41.61;98852.16;5044043;28;20266;-78
2023/07/15 03:05:13;;;;;;;5.15;2.28;;;;;;;23.07;41.56;98856.72;5043982;28;20533;-79
2023/07/15 03:07:43;;;;;;;3.38;1.42;;;;;;;23.08;41.59;98859.16;5044102;28;21418;-78
2023/07/15 03:10:09;;;;;;;4.43;1.60;;;;;;;23.03;41.46;98858.63;5043800;28;20041;-78
2023/07/15 03:12:35;;;;;;;3.15;1.52;;;;;;;23.00;41.96;98865.75;5044480;28;20073;-78
2023/07/15 03:15:00;;;;;;;9.98;2.15;;;;;;;23.03;41.98;98864.19;5043559;28;20081;-78
2023/07/15 03:17:25;;;;;;;6.27;1.40;;;;;;;23.03;41.90;98866.97;5046165;28;20092;-77
2023/07/15 03:19:50;;;;;;;4.38;1.70;;;;;;;23.04;41.90;98863.03;5047940;28;20039;-77
2023/07/15 03:22:16;;;;;;;3.27;1.57;;;;;;;23.07;41.77;98856.72;5047746;28;20048;-78
2023/07/15 03:24:41;;;;;;;3.33;1.30;;;;;;;23.05;41.68;98875.75;5048218;28;20290;-78
2023/07/15 03:27:06;;;;;;;11.53;2.80;;;;;;;23.07;41.54;98873.41;5047924;28;20890;-78
2023/07/15 03:29:32;;;;;;;4.17;1.60;;;;;;;23.06;41.61;98871.81;5047688;28;20265;-78
2023/07/15 03:31:57;;;;;;;6.18;2.38;;;;;;;23.02;41.64;98859.84;5047636;28;20349;-78
2023/07/15 03:34:22;;;;;;;3.85;1.77;;;;;;;23.05;41.83;98861.84;5047152;28;21167;-78
2023/07/15 03:36:48;;;;;;;3.30;1.30;;;;;;;23.04;41.91;98868.59;5048021;28;20209;-77
2023/07/15 03:39:13;;;;;;;15.32;1.63;;;;;;;23.02;41.92;98866.19;5047548;28;20078;-79
2023/07/15 03:41:39;;;;;;;3.30;1.75;;;;;;;23.01;41.86;98869.31;5047555;28;20033;-78
2023/07/15 03:44:04;;;;;;;3.27;1.77;;;;;;;23.01;42.03;98859.03;5047822;28;20048;-78
2023/07/15 03:46:30;;;;;;;2.33;1.33;;;;;;;23.01;41.95;98869.31;5047497;28;20254;-76
2023/07/15 03:48:55;;;;;;;2.75;1.40;;;;;;;22.95;41.95;98861.31;5047354;28;20266;-78
2023/07/15 03:51:20;;;;;;;2.90;1.80;;;;;;;22.94;42.20;98870.81;5047227;28;20095;-78
2023/07/15 03:53:46;;;;;;;3.47;1.80;;;;;;;22.97;42.33;98870.09;5047743;28;20144;-78
2023/07/15 03:56:11;;;;;;;9.95;2.75;;;;;;;23.00;42.36;98870.50;5046987;28;20033;-79
2023/07/15 03:58:36;;;;;;;2.63;1.20;;;;;;;23.03;42.51;98861.41;5047115;28;20517;-78
2023/07/15 04:01:02;;;;;;;5.00;1.70;;;;;;;22.96;42.42;98859.34;5047661;28;20079;-78
2023/07/15 04:03:28;;;;;;;2.83;1.45;;;;;;;22.95;42.62;98861.31;5047136;28;20266;-78
2023/07/15 04:05:53;;;;;;;6.57;2.35;;;;;;;22.95;42.55;98854.94;5046647;28;20622;-78
2023/07/15 04:08:18;;;;;;;2.87;1.50;;;;;;;22.95;42.74;98866.88;5047065;28;20065;-78
2023/07/15 04:10:47;;;;;;;5.60;2.30;;;;;;;22.96;42.93;98864.91;5046625;28;20270;-77
2023/07/15 04:13:13;;;;;;;4.55;1.45;;;;;;;22.96;42.82;98856.56;5047225;28;20106;-78
2023/07/15 04:15:39;;;;;;;6.18;2.42;;;;;;;22.99;42.83;98855.81;5047007;28;20068;-78
2023/07/15 04:18:05;;;;;;;5.65;2.03;;;;;;;23.00;42.88;98865.75;5046997;28;20060;-77
2023/07/15 04:20:30;;;;;;;3.70;1.80;;;;;;;22.93;43.19;98860.88;5046979;28;20473;-78
2023/07/15 04:22:56;;;;;;;2.37;1.27;;;;;;;22.97;43.00;98863.72;5046694;28;20095;-78
2023/07/15 04:25:21;;;;;;;4.05;1.40;;;;;;;22.95;42.99;98864.09;5046672;28;21169;-78
2023/07/15 04:27:46;;;;;;;4.03;1.30;;;;;;;22.97;43.21;98872.84;5046644;28;20769;-77
2023/07/15 04:30:11;;;;;;;2.70;1.60;;;;;;;22.96;43.25;98862.91;5046406;28;20035;-78
2023/07/15 04:32:37;;;;;;;4.78;1.75;;;;;;;22.94;43.63;98865.25;5046585;28;20061;-78
2023/07/15 04:35:03;;;;;;;4.22;1.20;;;;;;;22.91;43.40;98866.00;5046422;28;20731;-77
2023/07/15 04:37:30;;;;;;;3.90;2.05;;;;;;;22.95;43.44;98860.50;5046622;28;20123;-79
2023/07/15 04:39:56;;;;;;;3.13;1.45;;;;;;;22.98;43.64;98868.13;5046385;28;20032;-78
2023/07/15 04:42:21;;;;;;;3.70;1.30;;;;;;;22.96;43.49;98868.47;5046363;28;20024;-78
2023/07/15 04:44:46;;;;;;;2.60;1.35;;;;;;;22.95;43.68;98861.31;5046593;28;20481;-78
2023/07/15 04:47:12;;;;;;;2.73;1.57;;;;;;;23.00;43.65;98851.88;5046203;28;20121;-78
2023/07/15 04:49:37;;;;;;;3.13;1.70;;;;;;;23.04;43.79;98860.25;5044295;28;20508;-72
2023/07/15 04:52:03;;;;;;;4.88;1.98;;;;;;;23.06;43.79;98860.69;5043520;28;20044;-71
2023/07/15 04:54:28;;;;;;;2.40;1.30;;;;;;;23.07;43.65;98867.84;5044044;28;20044;-70
2023/07/15 04:56:53;;;;;;;3.77;1.23;;;;;;;23.06;44.02;98867.06;5044060;28;20060;-70
2023/07/15 04:59:19;;;;;;;2.92;1.23;;;;;;;23.12;43.92;98863.97;5043392;28;20596;-71
2023/07/15 05:01:44;;;;;;;3.80;1.63;;;;;;;23.12;43.90;98858.41;5043975;28;20493;-70
2023/07/15 05:04:09;;;;;;;2.25;1.23;;;;;;;23.13;44.25;98869.13;5043829;28;20120;-71
2023/07/15 05:06:36;;;;;;;4.47;1.60;;;;;;;23.04;44.32;98858.28;5043319;28;20041;-70
2023/07/15 05:09:04;;;;;;;3.65;1.55;;;;;;;23.05;44.30;98864.63;5043167;28;20033;-71
2023/07/15 05:11:29;;;;;;;3.03;1.80;;;;;;;23.07;44.43;98862.28;5043407;28;20040;-70
2023/07/15 05:13:55;;;;;;;3.17;1.63;;;;;;;23.08;44.49;98859.16;5043317;28;20491;-71
2023/07/15 05:16:20;;;;;;;6.47;1.50;;;;;;;23.12;44.65;98855.63;5043482;28;20029;-71
2023/07/15 05:18:45;;;;;;;2.83;1.17;;;;;;;23.08;44.67;98852.78;5043234;28;20106;-70
2023/07/15 05:21:10;;;;;;;4.15;1.42;;;;;;;23.14;44.49;98859.63;5042969;28;20755;-71
2023/07/15 05:23:36;;;;;;;5.50;1.97;;;;;;;23.11;44.49;98865.16;5043037;28;20044;-71
2023/07/15 05:26:01;;;;;;;4.38;1.45;;;;;;;23.16;44.93;98873.97;5043132;28;20025;-72
2023/07/15 05:28:30;;;;;;;3.53;1.13;;;;;;;23.12;44.80;98867.53;5042789;28;20033;-71
2023/07/15 05:31:03;;;;;;;3.78;1.70;;;;;;;23.12;44.62;98873.09;5043279;28;20041;-70
2023/07/15 05:33:29;;;;;;;4.32;1.55;;;;;;;23.08;44.92;98872.25;5043089;28;20037;-70
2023/07/15 05:35:55;;;;;;;2.85;1.63;;;;;;;23.08;44.88;98870.28;5043066;28;20039;-70
2023/07/15 05:38:23;;;;;;;3.45;1.52;;;;;;;23.16;44.93;98868.41;5042574;28;20048;-70
2023/07/15 05:40:49;;;;;;;4.88;1.42;;;;;;;23.17;44.67;98878.34;5042214;28;21291;-71
2023/07/15 05:43:14;;;;;;;3.40;1.63;;;;;;;23.17;45.20;98867.22;5042898;28;20033;-70
2023/07/15 05:45:39;;;;;;;5.63;1.60;;;;;;;23.20;44.88;98866.50;5042696;28;20048;-72
2023/07/15 05:48:05;;;;;;;2.37;1.40;;;;;;;23.28;45.05;98870.19;5042525;28;20438;-71
2023/07/15 05:50:34;;;;;;;3.33;1.58;;;;;;;23.28;45.25;98872.94;5042328;28;20297;-70
2023/07/15 05:52:59;;;;;;;3.25;1.60;;;;;;;23.31;45.14;98876.94;5042515;28;21213;-71
2023/07/15 05:55:25;;;;;;;7.32;1.40;;;;;;;23.37;44.81;98875.44;5042587;28;20041;-70
2023/07/15 05:57:50;;;;;;;2.73;1.10;;;;;;;23.37;45.28;98874.66;5042306;28;20469;-72
2023/07/15 06:00:15;;;;;;;2.40;1.47;;;;;;;23.35;45.01;98872.25;5044520;28;20037;-78
2023/07/15 06:02:41;;;;;;;3.67;1.60;;;;;;;23.34;44.68;98876.22;5044973;28;20041;-78
2023/07/15 06:05:06;;;;;;;3.30;1.55;;;;;;;23.40;45.19;98871.94;5045129;28;20126;-77
2023/07/15 06:07:32;;;;;;;1.95;1.23;;;;;;;23.51;44.79;98868.56;5044763;28;20051;-79
2023/07/15 06:09:57;;;;;;;5.32;1.52;;;;;;;23.54;45.14;98862.22;5044373;28;20471;-78
2023/07/15 06:12:23;;;;;;;3.53;1.20;;;;;;;23.57;45.39;98871.81;5044784;28;20036;-78
2023/07/15 06:14:49;;;;;;;11.25;1.90;;;;;;;23.58;45.42;98874.19;5044885;28;20959;-78
2023/07/15 06:17:14;;;;;;;3.65;1.45;;;;;;;23.69;44.99;98879.94;5044721;28;20036;-77
2023/07/15 06:19:39;;;;;;;3.93;1.87;;;;;;;23.72;45.06;98872.78;5044504;28;20061;-77
2023/07/15 06:22:05;;;;;;;6.00;2.83;;;;;;;23.80;44.98;98868.94;5044885;28;20037;-78
2023/07/15 06:24:31;;;;;;;6.05;2.80;;;;;;;23.75;44.93;98872.06;5044859;28;20256;-79
2023/07/15 06:26:56;;;;;;;4.82;1.65;;;;;;;23.82;45.11;98874.13;5044734;28;20856;-78
2023/07/15 06:29:24;;;;;;;6.47;1.90;;;;;;;23.89;45.14;98872.25;5042789;28;20662;-71
2023/07/15 06:31:49;;;;;;;4.88;1.98;;;;;;;23.90;45.25;98878.59;5041897;28;20630;-73
2023/07/15 06:34:14;;;;;;;2.87;1.47;;;;;;;23.93;45.41;98872.28;5042115;28;20029;-71
2023/07/15 06:36:40;;;;;;;3.40;1.77;;;;;;;24.02;44.90;98870.00;5041953;28;20273;-71
2023/07/15 06:39:05;;;;;;;3.43;1.37;;;;;;;24.09;44.97;98855.38;5041590;28;20044;-70
2023/07/15 06:41:30;;;;;;;3.97;1.40;;;;;;;24.10;45.05;98864.53;5042080;28;20276;-70
2023/07/15 06:43:56;;;;;;;5.00;2.13;;;;;;;24.14;44.85;98854.25;5041795;28;20112;-70
2023/07/15 06:46:21;;;;;;;4.10;2.40;;;;;;;24.17;45.07;98863.81;5041676;28;20128;-71
2023/07/15 06:48:48;;;;;;;5.53;2.10;;;;;;;24.18;45.24;98871.00;5041828;28;20262;-71
2023/07/15 06:51:14;;;;;;;3.83;1.58;;;;;;;24.20;44.61;98871.41;5043103;28;20037;-71
2023/07/15 06:53:40;;;;;;;3.22;1.30;;;;;;;24.27;44.94;98870.72;5045627;28;20048;-70
2023/07/15 06:56:05;;;;;;;2.95;1.60;;;;;;;24.29;44.74;98883.09;5045706;28;20711;-70
2023/07/15 06:58:31;;;;;;;1.90;1.17;;;;;;;24.34;44.73;98893.09;5045220;28;20044;-70
2023/07/15 07:00:56;;;;;;;7.25;2.17;;;;;;;24.35;45.28;98891.88;5045760;28;20258;-70
2023/07/15 07:03:21;;;;;;;2.43;1.43;;;;;;;24.35;44.59;98881.56;5045666;28;20122;-70
2023/07/15 07:05:46;;;;;;;3.80;1.63;;;;;;;24.39;44.65;98887.16;5044447;28;20063;-71
2023/07/15 07:08:12;;;;;;;4.17;1.73;;;;;;;24.41;45.05;98895.94;5046098;28;20509;-79
2023/07/15 07:10:37;;;;;;;6.23;1.30;;;;;;;24.52;44.71;98898.84;5047507;28;20098;-78
2023/07/15 07:13:04;;;;;;;2.37;1.17;;;;;;;24.64;45.25;98894.19;5047929;28;20033;-78
2023/07/15 07:15:29;;;;;;;4.10;1.25;;;;;;;24.70;44.89;98873.16;5046222;28;20505;-79
2023/07/15 07:17:55;;;;;;;7.70;1.70;;;;;;;24.69;44.63;98875.13;5047792;28;20049;-78
2023/07/15 07:20:20;;;;;;;14.13;3.90;;;;;;;24.74;45.00;98879.56;5047386;28;20642;-78
2023/07/15 07:22:46;;;;;;;4.60;1.90;;;;;;;24.80;45.03;98877.22;5047664;28;20106;-78
2023/07/15 07:25:11;;;;;;;2.30;1.20;;;;;;;24.92;44.90;98876.13;5047869;28;20058;-77
2023/07/15 07:27:36;;;;;;;11.20;1.60;;;;;;;24.95;44.86;98878.16;5047636;28;20061;-78
2023/07/15 07:30:02;;;;;;;3.17;1.03;;;;;;;24.98;44.61;98888.56;5047242;28;20057;-78
2023/07/15 07:32:27;;;;;;;3.15;1.30;;;;;;;25.10;44.58;98889.47;5047539;28;20048;-78
2023/07/15 07:34:53;;;;;;;2.20;1.10;;;;;;;25.10;44.58;98890.25;5047821;28;20683;-78
2023/07/15 07:37:18;;;;;;;3.13;1.25;;;;;;;24.99;43.94;98886.59;5047183;28;20285;-78
2023/07/15 07:39:44;;;;;;;1.80;1.15;;;;;;;25.06;44.28;98897.78;5045594;28;20033;-71
2023/07/15 07:42:09;;;;;;;2.93;1.13;;;;;;;25.06;44.18;98906.97;5044682;28;20036;-71
2023/07/15 07:44:34;;;;;;;2.97;1.38;;;;;;;25.15;44.40;98903.03;5044931;28;20845;-72
2023/07/15 07:47:00;;;;;;;4.43;1.70;;;;;;;25.18;44.72;98905.09;5044435;28;20529;-70
2023/07/15 07:49:25;;;;;;;4.88;1.27;;;;;;;25.23;44.35;98913.06;5044651;28;20265;-70
2023/07/15 07:51:50;;;;;;;2.83;1.43;;;;;;;25.25;44.60;98899.53;5045200;28;20459;-70
2023/07/15 07:54:15;;;;;;;2.10;1.20;;;;;;;25.02;44.53;98894.97;5044912;28;20037;-71
2023/07/15 07:56:41;;;;;;;4.23;1.70;;;;;;;25.08;45.07;98914.16;5045085;28;20095;-71
2023/07/15 07:59:06;;;;;;;4.60;1.17;;;;;;;25.15;45.02;98908.63;5044359;28;20449;-70
2023/07/15 08:01:31;;;;;;;4.13;1.93;;;;;;;25.22;44.84;98903.09;5044221;28;20036;-70
2023/07/15 08:03:57;;;;;;;3.47;1.17;;;;;;;25.14;45.45;98901.47;5043613;28;20756;-70
2023/07/15 08:06:23;;;;;;;4.93;1.75;;;;;;;25.14;45.06;98920.97;5044410;28;20025;-71
2023/07/15 08:08:48;;;;;;;3.20;1.48;;;;;;;25.21;45.54;98912.66;5044066;28;20473;-70
2023/07/15 08:11:14;;;;;;;3.75;1.00;;;;;;;25.28;45.18;98917.50;5044216;28;20033;-71
2023/07/15 08:13:39;;;;;;;2.15;1.30;;;;;;;25.21;45.15;98925.78;5043837;28;20044;-70
2023/07/15 08:16:04;;;;;;;2.43;1.10;;;;;;;25.20;45.46;98938.16;5044829;28;20037;-70
2023/07/15 08:18:30;;;;;;;5.72;1.38;;;;;;;25.18;45.73;98913.44;5044678;28;20278;-78
2023/07/15 08:20:55;;;;;;;2.78;1.13;;;;;;;25.25;45.81;98929.41;5046422;28;20033;-78
2023/07/15 08:23:20;;;;;;;3.15;1.38;;;;;;;25.20;45.92;98943.72;5046520;28;20052;-78
2023/07/15 08:25:46;;;;;;;2.80;1.00;;;;;;;25.21;45.96;98943.34;5046390;28;20123;-79
2023/07/15 08:28:11;;;;;;;3.90;1.58;;;;;;;25.22;45.43;98938.56;5046391;28;20803;-78
2023/07/15 08:30:37;;;;;;;4.85;1.92;;;;;;;25.25;46.13;98941.38;5045603;28;20063;-78
2023/07/15 08:33:06;;;;;;;2.25;1.17;;;;;;;25.13;46.19;98938.88;5046278;28;20108;-78
2023/07/15 08:35:33;;;;;;;2.53;1.02;;;;;;;25.18;46.51;98947.69;5046161;28;20041;-79
2023/07/15 08:37:58;;;;;;;5.13;1.83;;;;;;;25.03;46.71;98951.53;5046004;28;20040;-78
2023/07/15 08:40:26;;;;;;;5.13;1.95;;;;;;;25.07;47.06;98949.59;5045653;28;20032;-78
2023/07/15 08:42:52;;;;;;;7.85;2.53;;;;;;;25.08;47.07;98958.75;5046128;28;20068;-79
2023/07/15 08:45:18;;;;;;;4.80;2.03;;;;;;;24.86;47.50;98959.28;5045962;28;20044;-79
2023/07/15 08:47:44;;;;;;;5.70;1.98;;;;;;;24.89;47.88;98966.91;5045433;28;20049;-77
2023/07/15 08:50:18;;;;;;;3.28;1.63;;;;;;;24.82;48.06;98986.31;5045689;28;20037;-78
2023/07/15 08:52:44;;;;;;;3.88;1.90;;;;;;;24.82;48.35;98992.72;5046245;28;20029;-78
2023/07/15 08:55:10;;;;;;;6.35;1.83;;;;;;;24.66;47.88;99001.28;5045885;28;20029;-77
2023/07/15 08:57:36;;;;;;;5.22;1.55;;;;;;;24.65;48.28;99012.81;5045661;28;20033;-79
2023/07/15 09:00:09;;;;;;;2.35;1.50;;;;;;;24.58;47.72;99011.53;5045561;28;20037;-78
2023/07/15 09:02:37;;;;;;;;;;;;;;;24.53;47.96;99011.88;5046988;28;20509;-78
2023/07/15 09:05:05;;;;;;;3.25;1.73;;;;;;;24.49;48.29;99002.66;5045682;28;19920;-78
2023/07/15 09:07:31;;;;;;;5.00;2.03;;;;;;;24.37;48.93;99018.44;5045617;28;20032;-78
2023/07/15 09:10:04;;;;;;;10.73;1.83;;;;;;;24.20;50.48;99019.78;5044972;28;20927;-77
2023/07/15 09:12:30;;;;;;;5.70;1.65;;;;;;;24.17;51.34;99030.84;5045446;28;20039;-78
2023/07/15 09:14:55;;;;;;;4.77;1.67;;;;;;;24.02;52.60;99036.22;5045508;28;21203;-78
2023/07/15 09:17:21;;;;;;;5.87;2.13;;;;;;;23.70;57.39;99042.06;5045315;28;20029;-77
2023/07/15 09:19:47;;;;;;;6.47;2.00;;;;;;;23.43;60.26;99090.06;5044633;28;20132;-78
2023/07/15 09:22:15;;;;;;;9.10;2.35;;;;;;;22.90;64.74;99102.56;5045160;28;20065;-77
2023/07/15 09:24:40;;;;;;;7.25;2.20;;;;;;;22.44;67.66;99103.91;5045089;28;20033;-77
2023/07/15 09:27:06;;;;;;;6.75;3.38;;;;;;;22.41;69.61;99108.25;5045005;28;20095;-77
2023/07/15 09:29:32;;;;;;;10.05;2.38;;;;;;;22.16;71.10;99086.25;5043339;28;20037;-70
2023/07/15 09:31:57;;;;;;;6.78;2.90;;;;;;;22.06;71.70;99092.34;5042524;28;20043;-71
2023/07/15 09:34:26;;;;;;;9.73;2.85;;;;;;;21.76;73.83;99083.31;5042674;28;20484;-70
2023/07/15 09:36:53;;;;;;;5.45;2.83;;;;;;;21.72;74.61;99087.94;5042868;28;20168;-71
2023/07/15 09:39:22;;;;;;;4.53;2.22;;;;;;;21.62;76.13;99114.22;5042393;28;20604;-70
2023/07/15 09:42:04;;;;;;;10.57;2.72;;;;;;;21.46;76.97;99103.09;5042584;28;20064;-71
2023/07/15 09:44:35;;;;;;;4.93;1.90;;;;;;;21.34;77.82;99099.25;5042312;28;20083;-70
2023/07/15 09:47:02;;;;;;;7.22;2.42;;;;;;;21.18;79.65;99107.53;5042477;28;20044;-70
2023/07/15 09:49:28;;;;;;;6.18;2.13;;;;;;;21.32;79.76;99112.66;5042221;28;20043;-71
2023/07/15 09:51:54;;;;;;;6.72;3.05;;;;;;;21.28;80.41;99114.53;5042581;28;20037;-70
2023/07/15 09:54:21;;;;;;;5.47;2.55;;;;;;;21.20;81.29;99134.88;5042741;28;20121;-70
2023/07/15 09:56:49;;;;;;;13.38;2.15;;;;;;;21.24;81.09;99130.25;5042404;28;20024;-70
2023/07/15 09:59:21;;;;;;;8.32;2.72;;;;;;;21.15;81.67;99122.09;5043430;28;20029;-77
2023/07/15 10:01:47;;;;;;;4.30;1.85;;;;;;;21.25;81.94;99109.69;5044725;28;20048;-77
2023/07/15 10:04:22;;;;;;;13.68;2.20;;;;;;;21.30;81.40;99106.66;5044753;28;20505;-77
2023/07/15 10:06:50;;;;;;;5.63;2.38;;;;;;;21.20;81.46;99090.53;5044891;28;20041;-80
2023/07/15 10:09:17;;;;;;;6.00;2.30;;;;;;;21.34;81.38;99063.22;5044885;28;20067;-77
2023/07/15 10:11:42;;;;;;;4.30;1.58;;;;;;;21.37;81.26;99067.25;5044781;28;20048;-77
2023/07/15 10:14:09;;;;;;;5.03;2.30;;;;;;;21.41;81.47;99072.88;5044524;28;20045;-79
2023/07/15 10:16:34;;;;;;;5.47;2.30;;;;;;;21.38;81.62;99057.75;5044760;28;20098;-78
2023/07/15 10:19:01;;;;;;;4.72;2.40;;;;;;;21.30;82.77;99047.63;5044171;28;20556;-78
2023/07/15 10:21:27;;;;;;;5.28;2.70;;;;;;;21.41;82.53;99045.16;5045026;28;20037;-79
2023/07/15 10:24:09;;;;;;;6.30;2.58;;;;;;;21.45;82.07;99029.44;5044826;28;20049;-78
2023/07/15 10:26:34;;;;;;;2.80;1.75;;;;;;;21.55;82.75;99028.91;5044432;28;20460;-77
2023/07/15 10:29:02;;;;;;;5.75;2.45;;;;;;;21.52;83.18;99018.50;5044752;28;20128;-78
2023/07/15 10:31:27;;;;;;;4.22;1.92;;;;;;;21.68;83.01;99009.41;5045163;28;20118;-78
2023/07/15 10:33:57;;;;;;;4.22;2.22;;;;;;;21.57;82.09;99023.81;5044526;28;20041;-78
2023/07/15 10:36:44;;;;;;;4.03;2.15;;;;;;;21.52;82.54;99012.19;5044133;28;20040;-78
2023/07/15 10:39:19;;;;;;;4.30;1.60;;;;;;;21.62;82.02;99003.28;5044470;28;20391;-78
2023/07/15 10:41:48;;;;;;;4.80;2.05;;;;;;;21.70;81.54;99007.06;5043873;28;20025;-77
2023/07/15 10:44:40;;;;;;;3.17;1.88;;;;;;;21.67;81.15;99008.59;5044246;28;20036;-78
2023/07/15 10:47:05;;;;;;;3.63;1.80;;;;;;;21.79;80.68;99004.91;5039739;28;20084;-78
2023/07/15 10:49:31;;;;;;;3.08;1.40;;;;;;;21.83;81.04;99026.38;5043520;28;20478;-78
2023/07/15 10:51:57;;;;;;;3.50;1.98;;;;;;;21.78;81.04;99019.13;5044618;28;20029;-80
2023/07/15 10:54:25;;;;;;;3.70;1.85;;;;;;;21.87;81.72;99017.00;5043743;28;20039;-78
2023/07/15 10:56:50;;;;;;;3.88;1.75;;;;;;;22.01;81.13;99004.63;5044101;28;20341;-77
2023/07/15 10:59:16;;;;;;;5.97;1.63;;;;;;;22.15;81.00;99004.94;5044099;28;20068;-77
2023/07/15 11:01:43;;;;;;;4.93;1.63;;;;;;;22.38;80.70;98995.13;5043852;28;20039;-77
2023/07/15 11:04:08;;;;;;;4.53;2.15;;;;;;;22.55;79.85;99006.97;5043534;28;20250;-78
2023/07/15 11:06:34;;;;;;;3.17;1.13;;;;;;;22.38;79.83;99023.69;5043962;28;20033;-78
2023/07/15 11:09:16;;;;;;;3.67;1.70;;;;;;;22.49;79.91;99029.47;5042129;28;20426;-70
2023/07/15 11:11:41;;;;;;;3.63;1.60;;;;;;;22.53;79.64;99024.00;5041775;28;20106;-71
2023/07/15 11:14:18;;;;;;;2.87;1.60;;;;;;;22.31;79.75;99031.06;5041384;28;20045;-72
2023/07/15 11:16:43;;;;;;;1.40;0.90;;;;;;;22.24;80.14;99034.47;5041693;28;20304;-70
2023/07/15 11:19:13;;;;;;;2.83;1.38;;;;;;;22.39;79.95;99041.16;5041550;28;20120;-72
2023/07/15 11:21:39;;;;;;;3.63;1.60;;;;;;;22.47;80.26;99031.81;5041284;28;20580;-71
2023/07/15 11:24:04;;;;;;;4.20;1.70;;;;;;;22.37;80.58;99037.94;5041422;28;20044;-70
2023/07/15 11:26:29;;;;;;;5.10;1.25;;;;;;;22.58;80.48;99051.47;5041662;28;20037;-71
2023/07/15 11:28:54;;;;;;;3.70;1.67;;;;;;;22.61;80.09;99047.97;5040897;28;20037;-70
2023/07/15 11:31:21;;;;;;;8.30;1.87;;;;;;;22.66;80.19;99044.13;5041369;28;20320;-71